Terminal Aerodrome Forecast
Issued by NWS

Home | Current Version | Previous Version | Text Only | Print | Product List | Glossary On
Versions: 1 2 3 4 5 6 7 8 9 10 11 12 13 14 15 16 17 18 19 20 21
000
FTUS45 KGJT 042333
TAFRIL
TAF
KRIL 042333Z 0500/0524 VRB03KT P6SM BKN110
     FM051400 29006KT P6SM BKN070
     FM052000 28010G18KT P6SM BKN060=

USA.gov is the U.S. government's official web portal to all federal, state and local government web resources and services.